createdAt,value
2022-11-13T00:00:25.044Z,64.15
2022-11-13T00:02:52.728Z,64.17
2022-11-13T00:05:20.414Z,64.12
2022-11-13T00:07:48.103Z,63.99
2022-11-13T00:10:16.269Z,64.10
2022-11-13T00:12:45.397Z,64.05
2022-11-13T00:15:13.111Z,63.98
2022-11-13T00:17:40.762Z,63.96
2022-11-13T00:20:08.932Z,64.04
2022-11-13T00:22:36.661Z,63.85
2022-11-13T00:25:04.714Z,63.96
2022-11-13T00:27:32.417Z,63.87
2022-11-13T00:30:01.401Z,63.80
2022-11-13T00:32:29.132Z,63.95
2022-11-13T00:34:56.805Z,63.90
2022-11-13T00:37:24.502Z,63.85
2022-11-13T00:39:55.696Z,63.68
2022-11-13T00:42:27.152Z,63.59
2022-11-13T00:44:54.823Z,63.80
2022-11-13T00:47:23.952Z,63.80
2022-11-13T00:49:51.654Z,63.59
2022-11-13T00:52:19.313Z,63.72
2022-11-13T00:54:46.941Z,63.60
2022-11-13T00:57:14.591Z,63.68
2022-11-13T00:59:42.301Z,63.50
2022-11-13T01:02:10.129Z,63.63
2022-11-13T01:04:39.225Z,63.42
2022-11-13T01:07:06.928Z,63.32
2022-11-13T01:09:34.683Z,63.42
2022-11-13T01:12:02.364Z,63.42
2022-11-13T01:14:30.025Z,63.46
2022-11-13T01:16:57.677Z,63.54
2022-11-13T01:19:25.337Z,63.51
2022-11-13T01:21:54.370Z,63.45
2022-11-13T01:24:22.108Z,63.30
2022-11-13T01:26:49.887Z,63.42
2022-11-13T01:29:17.513Z,63.28
2022-11-13T01:31:45.131Z,63.42
2022-11-13T01:34:12.783Z,63.13
2022-11-13T01:36:40.468Z,63.16
2022-11-13T01:39:11.280Z,63.41
2022-11-13T01:41:39.212Z,63.12
2022-11-13T01:44:12.409Z,63.16
2022-11-13T01:46:42.214Z,62.82
2022-11-13T01:49:30.114Z,63.27
2022-11-13T01:52:02.976Z,63.18
2022-11-13T01:54:36.098Z,63.01
2022-11-13T01:57:06.492Z,63.16
2022-11-13T01:59:39.523Z,63.03
2022-11-13T02:02:07.780Z,62.99
2022-11-13T02:04:35.871Z,62.98
2022-11-13T02:07:07.277Z,62.72
2022-11-13T02:09:38.342Z,62.78
2022-11-13T02:12:08.081Z,62.83
2022-11-13T02:14:39.154Z,62.81
2022-11-13T02:17:09.914Z,62.83
2022-11-13T02:19:40.450Z,62.82
2022-11-13T02:22:16.785Z,62.80
2022-11-13T02:24:51.041Z,62.94
2022-11-13T02:27:28.437Z,62.61
2022-11-13T02:29:56.159Z,62.76
2022-11-13T02:32:23.857Z,62.69
2022-11-13T02:34:51.589Z,62.77
2022-11-13T02:37:19.257Z,62.73
2022-11-13T02:39:48.305Z,62.71
2022-11-13T02:42:15.987Z,62.71
2022-11-13T02:44:43.638Z,62.64
2022-11-13T02:47:11.301Z,62.82
2022-11-13T02:49:38.989Z,62.65
2022-11-13T02:52:06.621Z,62.58
2022-11-13T02:54:34.315Z,62.58
2022-11-13T02:57:03.363Z,62.70
2022-11-13T02:59:31.031Z,62.69
2022-11-13T03:01:58.717Z,62.63
2022-11-13T03:04:34.770Z,62.51
2022-11-13T03:07:12.002Z,62.52
2022-11-13T03:09:39.899Z,62.59
2022-11-13T03:12:10.412Z,62.59
2022-11-13T03:14:38.091Z,62.53
2022-11-13T03:17:05.773Z,62.50
2022-11-13T03:19:33.658Z,62.60
2022-11-13T03:22:01.410Z,62.36
2022-11-13T03:24:29.044Z,62.45
2022-11-13T03:26:56.755Z,62.36
2022-11-13T03:29:25.750Z,62.49
2022-11-13T03:31:53.385Z,62.18
2022-11-13T03:34:21.203Z,62.45
2022-11-13T03:36:48.874Z,62.50
2022-11-13T03:39:16.764Z,62.46
2022-11-13T03:41:44.413Z,62.37
2022-11-13T03:44:12.821Z,62.38
2022-11-13T03:46:41.793Z,62.39
2022-11-13T03:49:09.454Z,62.34
2022-11-13T03:51:37.209Z,62.45
2022-11-13T03:54:04.887Z,62.46
2022-11-13T03:56:32.581Z,62.39
2022-11-13T03:59:00.225Z,62.41
2022-11-13T04:01:27.955Z,62.44
2022-11-13T04:03:56.986Z,62.29
2022-11-13T04:06:24.705Z,62.27
2022-11-13T04:08:52.350Z,62.34
2022-11-13T04:11:20.002Z,62.15
2022-11-13T04:13:47.645Z,62.31
2022-11-13T04:16:15.270Z,62.45
2022-11-13T04:18:42.933Z,62.39
2022-11-13T04:21:12.015Z,62.31
2022-11-13T04:23:39.635Z,62.22
2022-11-13T04:26:07.317Z,62.32
2022-11-13T04:28:35.021Z,62.31
2022-11-13T04:31:02.695Z,62.06
2022-11-13T04:33:30.331Z,62.34
2022-11-13T04:35:57.933Z,62.29
2022-11-13T04:38:27.416Z,62.22
2022-11-13T04:41:15.341Z,62.39
2022-11-13T04:43:42.059Z,62.31
2022-11-13T04:46:09.735Z,62.38
2022-11-13T04:48:37.406Z,62.38
2022-11-13T04:51:05.564Z,62.05
2022-11-13T04:53:35.437Z,62.26
2022-11-13T04:56:03.114Z,62.20
2022-11-13T04:58:31.064Z,62.15
2022-11-13T05:00:58.817Z,62.36
2022-11-13T05:03:26.431Z,62.50
2022-11-13T05:05:54.095Z,62.16
2022-11-13T05:08:21.747Z,62.20
2022-11-13T05:10:50.710Z,62.10
2022-11-13T05:13:18.351Z,62.10
2022-11-13T05:15:46.013Z,62.08
2022-11-13T05:18:13.782Z,61.81
2022-11-13T05:20:41.780Z,62.20
2022-11-13T05:23:09.422Z,61.99
2022-11-13T05:25:37.106Z,62.15
2022-11-13T05:28:06.282Z,62.08
2022-11-13T05:30:33.904Z,62.11
2022-11-13T05:33:01.593Z,62.11
2022-11-13T05:35:29.246Z,62.00
2022-11-13T05:37:56.999Z,61.86
2022-11-13T05:40:24.636Z,61.87
2022-11-13T05:42:54.122Z,61.77
2022-11-13T05:45:23.186Z,61.98
2022-11-13T05:47:51.118Z,62.04
2022-11-13T05:50:20.699Z,61.90
2022-11-13T05:52:48.417Z,61.94
2022-11-13T05:55:16.635Z,61.63
2022-11-13T05:57:44.274Z,61.79
2022-11-13T06:00:13.164Z,61.87
2022-11-13T06:02:42.183Z,61.80
2022-11-13T06:05:10.165Z,61.80
2022-11-13T06:07:37.797Z,61.88
2022-11-13T06:10:06.319Z,61.41
2022-11-13T06:12:33.981Z,61.04
2022-11-13T06:15:01.619Z,60.20
2022-11-13T06:17:29.243Z,59.96
2022-11-13T06:19:58.300Z,59.48
2022-11-13T06:22:25.967Z,58.85
2022-11-13T06:24:53.634Z,58.43
2022-11-13T06:27:21.268Z,57.91
2022-11-13T06:29:48.897Z,57.59
2022-11-13T06:32:16.541Z,57.96
2022-11-13T06:34:44.167Z,58.07
2022-11-13T06:37:13.148Z,58.50
2022-11-13T06:39:40.806Z,58.75
2022-11-13T06:42:08.499Z,58.91
2022-11-13T06:44:36.144Z,59.22
2022-11-13T06:47:03.801Z,59.46
2022-11-13T06:49:31.482Z,59.55
2022-11-13T06:51:59.175Z,59.67
2022-11-13T06:54:28.190Z,59.70
2022-11-13T06:56:55.857Z,59.88
2022-11-13T06:59:23.533Z,59.79
2022-11-13T07:01:52.269Z,60.04
2022-11-13T07:04:19.945Z,59.96
2022-11-13T07:06:47.794Z,59.91
2022-11-13T07:09:15.701Z,59.98
2022-11-13T07:11:44.717Z,59.90
2022-11-13T07:14:13.441Z,59.83
2022-11-13T07:17:07.491Z,60.18
2022-11-13T07:19:28.787Z,60.17
2022-11-13T07:21:56.443Z,60.26
2022-11-13T07:24:24.161Z,60.07
2022-11-13T07:26:53.184Z,60.11
2022-11-13T07:29:20.849Z,60.36
2022-11-13T07:31:48.513Z,60.17
2022-11-13T07:34:16.124Z,60.19
2022-11-13T07:36:43.865Z,60.36
2022-11-13T07:39:12.031Z,60.37
2022-11-13T07:41:39.731Z,60.20
2022-11-13T07:44:09.946Z,60.38
2022-11-13T07:46:38.729Z,60.19
2022-11-13T07:49:06.863Z,60.31
2022-11-13T07:51:34.505Z,60.53
2022-11-13T07:54:02.172Z,60.16
2022-11-13T07:56:29.821Z,60.57
2022-11-13T07:58:57.483Z,60.44
2022-11-13T08:01:27.036Z,60.55
2022-11-13T08:03:54.722Z,60.60
2022-11-13T08:06:24.024Z,60.61
2022-11-13T08:08:51.791Z,60.60
2022-11-13T08:11:19.495Z,60.75
2022-11-13T08:13:47.142Z,61.07
2022-11-13T08:16:15.006Z,61.01
2022-11-13T08:18:44.020Z,61.26
2022-11-13T08:21:14.841Z,60.83
2022-11-13T08:23:43.531Z,61.23
2022-11-13T08:26:11.492Z,60.97
2022-11-13T08:28:39.206Z,61.27
2022-11-13T08:31:12.115Z,60.97
2022-11-13T08:33:40.061Z,61.08
2022-11-13T08:36:10.539Z,61.37
2022-11-13T08:38:38.266Z,61.17
2022-11-13T08:41:09.238Z,61.23
2022-11-13T08:43:37.415Z,60.86
2022-11-13T08:46:05.148Z,61.23
2022-11-13T08:48:32.942Z,60.96
2022-11-13T08:51:00.643Z,60.96
2022-11-13T08:53:29.667Z,61.19
2022-11-13T08:56:01.224Z,61.07
2022-11-13T08:58:29.225Z,61.34
2022-11-13T09:01:01.570Z,61.12
2022-11-13T09:03:29.387Z,61.24
2022-11-13T09:05:57.099Z,61.06
2022-11-13T09:08:24.786Z,61.38
2022-11-13T09:10:53.840Z,61.27
2022-11-13T09:13:21.557Z,60.98
2022-11-13T09:15:49.237Z,60.80
2022-11-13T09:18:16.924Z,60.28
2022-11-13T09:20:44.572Z,59.77
2022-11-13T09:23:12.262Z,59.63
2022-11-13T09:25:39.955Z,59.16
2022-11-13T09:28:09.842Z,58.76
2022-11-13T09:30:39.693Z,59.04
2022-11-13T09:33:07.731Z,59.19
2022-11-13T09:35:35.484Z,59.65
2022-11-13T09:38:10.434Z,59.85
2022-11-13T09:40:43.124Z,60.04
2022-11-13T09:43:23.593Z,60.26
2022-11-13T09:45:55.002Z,60.75
2022-11-13T09:48:29.978Z,60.90
2022-11-13T09:51:00.634Z,60.96
2022-11-13T09:53:35.163Z,61.17
2022-11-13T09:56:15.289Z,61.56
2022-11-13T09:58:49.571Z,61.45
2022-11-13T10:01:24.999Z,61.66
2022-11-13T10:04:02.323Z,61.90
2022-11-13T10:06:41.923Z,61.77
2022-11-13T10:09:21.076Z,61.92
2022-11-13T10:11:53.310Z,61.67
2022-11-13T10:14:30.141Z,62.01
2022-11-13T10:16:59.816Z,62.10
2022-11-13T10:19:35.571Z,62.08
2022-11-13T10:22:31.542Z,62.30
2022-11-13T10:25:01.051Z,62.34
2022-11-13T10:27:28.816Z,62.38
2022-11-13T10:29:58.171Z,62.43
2022-11-13T10:32:28.230Z,62.19
2022-11-13T10:35:02.357Z,62.40
2022-11-13T10:37:44.230Z,62.51
2022-11-13T10:40:11.991Z,62.39
2022-11-13T10:42:42.881Z,62.78
2022-11-13T10:45:20.150Z,62.50
2022-11-13T10:48:03.595Z,62.67
2022-11-13T10:50:33.103Z,62.45
2022-11-13T10:53:00.893Z,62.34
2022-11-13T10:55:38.297Z,62.47
2022-11-13T10:58:15.104Z,62.42
2022-11-13T11:00:47.440Z,62.43
2022-11-13T11:03:16.886Z,62.50
2022-11-13T11:05:54.140Z,62.38
2022-11-13T11:08:26.384Z,62.42
2022-11-13T11:11:18.760Z,62.60
2022-11-13T11:13:46.724Z,62.58
2022-11-13T11:16:21.161Z,62.76
2022-11-13T11:18:54.805Z,62.68
2022-11-13T11:21:26.858Z,62.66
2022-11-13T11:23:58.939Z,62.82
2022-11-13T11:26:32.329Z,62.66
2022-11-13T11:29:14.515Z,62.49
2022-11-13T11:31:52.141Z,62.78
2022-11-13T11:34:24.960Z,62.70
2022-11-13T11:37:00.127Z,62.85
2022-11-13T11:39:33.192Z,62.75
2022-11-13T11:42:12.054Z,62.65
2022-11-13T11:44:49.588Z,62.95
2022-11-13T11:47:19.409Z,62.58
2022-11-13T11:49:47.362Z,62.72
2022-11-13T11:52:30.518Z,62.83
2022-11-13T11:55:11.151Z,62.89
2022-11-13T11:57:50.671Z,63.17
2022-11-13T12:00:20.182Z,62.95
2022-11-13T12:03:05.569Z,63.14
2022-11-13T12:05:45.049Z,63.32
2022-11-13T12:08:25.130Z,63.02
2022-11-13T12:11:01.038Z,63.27
2022-11-13T12:13:31.415Z,63.20
2022-11-13T12:16:06.046Z,62.86
2022-11-13T12:18:45.133Z,63.16
2022-11-13T12:21:25.115Z,63.22
2022-11-13T12:24:10.405Z,63.19
2022-11-13T12:26:47.420Z,62.96
2022-11-13T12:29:31.886Z,62.49
2022-11-13T12:32:08.959Z,62.83
2022-11-13T12:34:44.533Z,63.19
2022-11-13T12:37:16.313Z,62.73
2022-11-13T12:39:52.453Z,62.45
2022-11-13T12:42:29.139Z,61.84
2022-11-13T12:45:06.904Z,61.90
2022-11-13T12:47:35.947Z,62.46
2022-11-13T12:50:07.833Z,61.71
2022-11-13T12:52:35.492Z,62.30
2022-11-13T12:55:09.277Z,62.35
2022-11-13T12:57:48.150Z,61.58
2022-11-13T13:00:26.586Z,61.55
2022-11-13T13:03:08.962Z,61.33
2022-11-13T13:05:59.781Z,61.54
2022-11-13T13:08:47.678Z,61.54
2022-11-13T13:11:23.189Z,62.06
2022-11-13T13:14:02.846Z,62.25
2022-11-13T13:16:31.242Z,62.78
2022-11-13T13:19:23.611Z,60.21
2022-11-13T13:21:52.872Z,61.75
2022-11-13T13:24:30.906Z,61.52
2022-11-13T13:26:58.710Z,60.99
2022-11-13T13:29:27.504Z,61.64
2022-11-13T13:32:10.059Z,62.16
2022-11-13T13:34:51.046Z,61.48
2022-11-13T13:37:31.425Z,61.30
2022-11-13T13:40:12.303Z,62.10
2022-11-13T13:42:56.585Z,62.32
2022-11-13T13:45:34.818Z,62.69
2022-11-13T13:48:03.552Z,62.88
2022-11-13T13:50:34.534Z,63.06
2022-11-13T13:53:04.301Z,62.50
2022-11-13T13:55:34.888Z,62.15
2022-11-13T13:58:05.695Z,62.58
2022-11-13T14:00:33.867Z,62.79
2022-11-13T14:03:03.283Z,63.12
2022-11-13T14:05:33.704Z,62.87
2022-11-13T14:08:07.334Z,63.13
2022-11-13T14:10:37.513Z,62.85
2022-11-13T14:13:05.840Z,62.86
2022-11-13T14:15:35.550Z,62.95
2022-11-13T14:18:08.381Z,63.38
2022-11-13T14:20:42.294Z,63.33
2022-11-13T14:23:14.873Z,63.08
2022-11-13T14:25:43.361Z,63.03
2022-11-13T14:28:16.896Z,62.86
2022-11-13T14:30:45.222Z,62.22
2022-11-13T14:33:18.521Z,62.38
2022-11-13T14:35:52.532Z,61.88
2022-11-13T14:38:24.028Z,61.35
2022-11-13T14:40:52.038Z,61.87
2022-11-13T14:43:23.765Z,62.46
2022-11-13T14:45:57.404Z,62.61
2022-11-13T14:48:26.990Z,62.72
2022-11-13T14:50:57.150Z,62.91
2022-11-13T14:53:31.947Z,62.84
2022-11-13T14:56:02.460Z,62.73
2022-11-13T14:58:32.028Z,62.66
2022-11-13T15:01:00.121Z,62.91
2022-11-13T15:03:28.644Z,62.85
2022-11-13T15:05:56.589Z,62.77
2022-11-13T15:08:24.330Z,63.05
2022-11-13T15:10:53.661Z,63.07
2022-11-13T15:13:21.318Z,62.52
2022-11-13T15:15:50.350Z,62.57
2022-11-13T15:18:20.670Z,62.62
2022-11-13T15:20:49.607Z,63.00
2022-11-13T15:23:17.678Z,62.57
2022-11-13T15:25:45.410Z,62.92
2022-11-13T15:28:14.476Z,62.56
2022-11-13T15:30:42.138Z,62.90
2022-11-13T15:33:15.247Z,62.32
2022-11-13T15:35:43.617Z,62.41
2022-11-13T15:38:11.591Z,62.68
2022-11-13T15:40:40.186Z,62.88
2022-11-13T15:43:18.346Z,63.05
2022-11-13T15:45:45.980Z,62.76
2022-11-13T15:48:14.403Z,63.01
2022-11-13T15:50:42.069Z,62.68
2022-11-13T15:53:12.276Z,62.59
2022-11-13T15:55:41.854Z,62.06
2022-11-13T15:58:16.703Z,62.30
2022-11-13T16:00:46.009Z,61.89
2022-11-13T16:03:14.050Z,61.92
2022-11-13T16:05:41.692Z,61.48
2022-11-13T16:08:13.141Z,61.35
2022-11-13T16:10:40.782Z,61.49
2022-11-13T16:13:08.420Z,61.71
2022-11-13T16:15:37.497Z,61.37
2022-11-13T16:18:05.670Z,61.95
2022-11-13T16:20:33.417Z,61.40
2022-11-13T16:23:01.088Z,61.95
2022-11-13T16:25:28.929Z,61.97
2022-11-13T16:27:56.589Z,61.83
2022-11-13T16:30:25.314Z,61.57
2022-11-13T16:32:55.189Z,61.74
2022-11-13T16:35:22.838Z,61.99
2022-11-13T16:37:50.472Z,61.91
2022-11-13T16:40:21.209Z,61.90
2022-11-13T16:42:48.950Z,61.65
2022-11-13T16:45:16.936Z,61.85
2022-11-13T16:47:45.257Z,61.96
2022-11-13T16:50:20.328Z,61.60
2022-11-13T16:52:48.029Z,62.00
2022-11-13T16:55:15.980Z,61.38
2022-11-13T16:57:43.701Z,60.78
2022-11-13T17:00:16.101Z,60.41
2022-11-13T17:02:44.474Z,60.02
2022-11-13T17:05:14.493Z,59.43
2022-11-13T17:07:43.569Z,58.80
2022-11-13T17:10:30.674Z,58.55
2022-11-13T17:13:00.039Z,58.69
2022-11-13T17:15:27.786Z,58.39
2022-11-13T17:17:58.165Z,58.78
2022-11-13T17:20:26.059Z,58.83
2022-11-13T17:22:55.148Z,59.34
2022-11-13T17:25:26.351Z,59.37
2022-11-13T17:27:54.082Z,59.42
2022-11-13T17:30:21.870Z,59.76
2022-11-13T17:32:49.526Z,59.53
2022-11-13T17:35:17.281Z,60.17
2022-11-13T17:37:44.953Z,59.72
2022-11-13T17:40:14.290Z,59.89
2022-11-13T17:42:42.328Z,59.89
2022-11-13T17:45:11.454Z,59.25
2022-11-13T17:47:39.338Z,58.61
2022-11-13T17:50:08.074Z,58.64
2022-11-13T17:52:35.834Z,58.75
2022-11-13T17:55:06.065Z,58.50
2022-11-13T17:57:35.397Z,58.14
2022-11-13T18:00:03.631Z,57.43
2022-11-13T18:02:31.341Z,56.98
2022-11-13T18:05:01.260Z,56.60
2022-11-13T18:07:29.764Z,56.41
2022-11-13T18:09:57.647Z,55.69
2022-11-13T18:12:25.395Z,55.11
2022-11-13T18:14:54.384Z,54.88
2022-11-13T18:17:23.121Z,54.70
2022-11-13T18:19:54.809Z,54.43
2022-11-13T18:22:26.630Z,53.98
2022-11-13T18:24:55.222Z,54.16
2022-11-13T18:27:22.902Z,54.47
2022-11-13T18:29:50.551Z,54.93
2022-11-13T18:32:19.613Z,55.67
2022-11-13T18:34:47.280Z,56.23
2022-11-13T18:37:14.965Z,56.72
2022-11-13T18:39:42.672Z,56.72
2022-11-13T18:42:10.393Z,57.10
2022-11-13T18:44:38.159Z,57.19
2022-11-13T18:47:05.868Z,57.50
2022-11-13T18:49:34.889Z,57.31
2022-11-13T18:52:02.598Z,57.67
2022-11-13T18:54:30.317Z,57.53
2022-11-13T18:56:57.991Z,57.97
2022-11-13T18:59:25.704Z,57.94
2022-11-13T19:01:53.445Z,57.84
2022-11-13T19:04:23.251Z,58.35
2022-11-13T19:06:53.153Z,57.91
2022-11-13T19:09:21.032Z,57.66
2022-11-13T19:11:50.187Z,57.36
2022-11-13T19:14:19.618Z,56.53
2022-11-13T19:16:47.472Z,56.38
2022-11-13T19:19:17.914Z,55.90
2022-11-13T19:21:46.717Z,55.67
2022-11-13T19:24:16.156Z,55.32
2022-11-13T19:26:44.778Z,55.25
2022-11-13T19:29:12.886Z,54.88
2022-11-13T19:31:40.683Z,55.48
2022-11-13T19:34:09.225Z,55.35
2022-11-13T19:36:37.580Z,56.23
2022-11-13T19:39:05.945Z,56.43
2022-11-13T19:41:34.947Z,56.80
2022-11-13T19:44:02.680Z,56.72
2022-11-13T19:46:32.020Z,56.83
2022-11-13T19:48:59.818Z,57.02
2022-11-13T19:51:27.836Z,57.28
2022-11-13T19:53:56.503Z,57.65
2022-11-13T19:56:25.847Z,57.68
2022-11-13T19:58:55.519Z,57.90
2022-11-13T20:01:25.691Z,57.84
2022-11-13T20:03:57.556Z,57.79
2022-11-13T20:06:26.377Z,58.10
2022-11-13T20:08:54.089Z,58.24
2022-11-13T20:11:21.852Z,58.36
2022-11-13T20:13:49.610Z,58.16
2022-11-13T20:16:20.892Z,58.22
2022-11-13T20:18:48.713Z,58.40
2022-11-13T20:21:16.708Z,58.33
2022-11-13T20:23:44.862Z,58.37
2022-11-13T20:26:16.585Z,58.68
2022-11-13T20:28:44.269Z,58.32
2022-11-13T20:31:16.409Z,58.34
2022-11-13T20:33:45.511Z,58.39
2022-11-13T20:36:13.499Z,58.33
2022-11-13T20:38:41.345Z,58.57
2022-11-13T20:41:11.904Z,58.87
2022-11-13T20:43:39.775Z,58.56
2022-11-13T20:46:10.167Z,58.70
2022-11-13T20:48:38.471Z,58.82
2022-11-13T20:51:09.109Z,58.50
2022-11-13T20:53:37.002Z,58.74
2022-11-13T20:56:05.312Z,58.41
2022-11-13T20:58:32.979Z,58.81
2022-11-13T21:01:04.895Z,58.64
2022-11-13T21:03:37.135Z,58.74
2022-11-13T21:06:09.948Z,58.70
2022-11-13T21:08:37.836Z,58.64
2022-11-13T21:11:07.182Z,58.46
2022-11-13T21:13:35.431Z,58.47
2022-11-13T21:16:06.023Z,58.31
2022-11-13T21:18:33.748Z,58.49
2022-11-13T21:21:06.102Z,58.45
2022-11-13T21:23:35.276Z,58.58
2022-11-13T21:26:04.337Z,58.66
2022-11-13T21:28:33.675Z,58.56
2022-11-13T21:31:03.229Z,58.53
2022-11-13T21:33:31.265Z,58.68
2022-11-13T21:36:05.407Z,58.78
2022-11-13T21:38:33.356Z,58.84
2022-11-13T21:41:21.510Z,58.65
2022-11-13T21:43:49.265Z,58.45
2022-11-13T21:46:17.484Z,58.62
2022-11-13T21:48:45.513Z,58.82
2022-11-13T21:51:13.948Z,58.51
2022-11-13T21:53:42.817Z,58.40
2022-11-13T21:56:15.718Z,58.59
2022-11-13T21:58:44.249Z,58.69
2022-11-13T22:01:13.167Z,58.28
2022-11-13T22:03:41.597Z,58.48
2022-11-13T22:06:13.923Z,58.36
2022-11-13T22:08:42.037Z,58.46
2022-11-13T22:11:12.039Z,58.52
2022-11-13T22:13:40.096Z,58.36
2022-11-13T22:16:09.565Z,58.45
2022-11-13T22:18:37.227Z,58.20
2022-11-13T22:21:06.461Z,58.19
2022-11-13T22:23:34.546Z,58.27
2022-11-13T22:26:03.047Z,58.25
2022-11-13T22:28:33.562Z,58.30
2022-11-13T22:31:01.392Z,58.24
2022-11-13T22:33:30.440Z,58.26
2022-11-13T22:36:02.769Z,58.19
2022-11-13T22:38:30.874Z,58.35
2022-11-13T22:41:04.109Z,58.34
2022-11-13T22:43:37.935Z,58.31
2022-11-13T22:46:07.544Z,58.63
2022-11-13T22:48:36.216Z,58.72
2022-11-13T22:51:06.047Z,58.31
2022-11-13T22:53:33.749Z,58.35
2022-11-13T22:56:02.843Z,58.33
2022-11-13T22:58:30.845Z,58.59
2022-11-13T23:01:06.476Z,58.75
2022-11-13T23:03:37.589Z,58.65
2022-11-13T23:06:05.943Z,58.51
2022-11-13T23:08:38.551Z,58.85
2022-11-13T23:11:07.471Z,58.47
2022-11-13T23:13:35.294Z,58.68
2022-11-13T23:16:03.421Z,58.73
2022-11-13T23:18:33.334Z,59.02
2022-11-13T23:21:00.981Z,58.73
2022-11-13T23:23:28.665Z,58.90
2022-11-13T23:25:56.359Z,58.76
2022-11-13T23:28:24.062Z,58.75
2022-11-13T23:30:51.869Z,58.73
2022-11-13T23:33:19.566Z,58.91
2022-11-13T23:35:49.246Z,58.72
2022-11-13T23:38:17.174Z,58.57
2022-11-13T23:40:44.902Z,58.59
2022-11-13T23:43:13.046Z,58.63
2022-11-13T23:45:40.741Z,58.67
2022-11-13T23:48:08.394Z,58.72
2022-11-13T23:50:36.026Z,58.57
2022-11-13T23:53:05.498Z,58.66
2022-11-13T23:55:33.335Z,58.54
2022-11-13T23:58:02.309Z,58.69
